sensor_id;sensor_type;location;lat;lon;timestamp;P1;durP1;ratioP1;P2;durP2;ratioP2
56893;SDS011;43392;50.078;13.704;2023-05-16T00:01:10;11.57;;;7.90;;
56893;SDS011;43392;50.078;13.704;2023-05-16T00:03:37;12.23;;;7.30;;
56893;SDS011;43392;50.078;13.704;2023-05-16T00:06:04;12.65;;;8.35;;
56893;SDS011;43392;50.078;13.704;2023-05-16T00:08:31;11.25;;;7.88;;
56893;SDS011;43392;50.078;13.704;2023-05-16T00:10:57;11.05;;;7.28;;
56893;SDS011;43392;50.078;13.704;2023-05-16T00:13:24;12.15;;;7.70;;
56893;SDS011;43392;50.078;13.704;2023-05-16T00:15:51;12.98;;;7.75;;
56893;SDS011;43392;50.078;13.704;2023-05-16T00:18:19;13.93;;;8.95;;
56893;SDS011;43392;50.078;13.704;2023-05-16T00:20:46;12.75;;;8.00;;
56893;SDS011;43392;50.078;13.704;2023-05-16T00:23:13;15.27;;;8.77;;
56893;SDS011;43392;50.078;13.704;2023-05-16T00:25:39;11.73;;;8.27;;
56893;SDS011;43392;50.078;13.704;2023-05-16T00:28:06;12.43;;;8.10;;
56893;SDS011;43392;50.078;13.704;2023-05-16T00:30:32;12.95;;;7.93;;
56893;SDS011;43392;50.078;13.704;2023-05-16T00:32:59;11.70;;;8.07;;
56893;SDS011;43392;50.078;13.704;2023-05-16T00:35:27;12.63;;;7.50;;
56893;SDS011;43392;50.078;13.704;2023-05-16T00:37:54;12.45;;;7.95;;
56893;SDS011;43392;50.078;13.704;2023-05-16T00:40:21;11.43;;;7.90;;
56893;SDS011;43392;50.078;13.704;2023-05-16T00:42:47;11.93;;;7.68;;
56893;SDS011;43392;50.078;13.704;2023-05-16T00:45:14;15.27;;;7.50;;
56893;SDS011;43392;50.078;13.704;2023-05-16T00:47:40;12.02;;;7.40;;
56893;SDS011;43392;50.078;13.704;2023-05-16T00:50:07;11.98;;;7.70;;
56893;SDS011;43392;50.078;13.704;2023-05-16T00:52:36;11.32;;;7.07;;
56893;SDS011;43392;50.078;13.704;2023-05-16T00:55:03;9.88;;;7.43;;
56893;SDS011;43392;50.078;13.704;2023-05-16T00:57:30;12.88;;;8.50;;
56893;SDS011;43392;50.078;13.704;2023-05-16T00:59:57;15.13;;;9.38;;
56893;SDS011;43392;50.078;13.704;2023-05-16T01:02:24;14.80;;;8.50;;
56893;SDS011;43392;50.078;13.704;2023-05-16T01:04:53;10.20;;;7.20;;
56893;SDS011;43392;50.078;13.704;2023-05-16T01:07:20;13.05;;;8.30;;
56893;SDS011;43392;50.078;13.704;2023-05-16T01:09:48;13.95;;;10.57;;
56893;SDS011;43392;50.078;13.704;2023-05-16T01:12:17;14.63;;;10.15;;
56893;SDS011;43392;50.078;13.704;2023-05-16T01:14:50;11.88;;;9.02;;
56893;SDS011;43392;50.078;13.704;2023-05-16T01:17:27;13.95;;;8.70;;
56893;SDS011;43392;50.078;13.704;2023-05-16T01:20:03;11.73;;;8.73;;
56893;SDS011;43392;50.078;13.704;2023-05-16T01:22:44;14.20;;;8.52;;
56893;SDS011;43392;50.078;13.704;2023-05-16T01:25:25;13.57;;;8.45;;
56893;SDS011;43392;50.078;13.704;2023-05-16T01:28:04;11.85;;;8.45;;
56893;SDS011;43392;50.078;13.704;2023-05-16T01:30:33;12.75;;;8.27;;
56893;SDS011;43392;50.078;13.704;2023-05-16T01:33:01;10.88;;;7.90;;
56893;SDS011;43392;50.078;13.704;2023-05-16T01:35:27;11.60;;;8.55;;
56893;SDS011;43392;50.078;13.704;2023-05-16T01:37:57;13.10;;;8.38;;
56893;SDS011;43392;50.078;13.704;2023-05-16T01:40:30;10.60;;;7.85;;
56893;SDS011;43392;50.078;13.704;2023-05-16T01:43:07;12.50;;;8.75;;
56893;SDS011;43392;50.078;13.704;2023-05-16T01:45:39;14.95;;;9.40;;
56893;SDS011;43392;50.078;13.704;2023-05-16T01:48:15;15.73;;;9.70;;
56893;SDS011;43392;50.078;13.704;2023-05-16T01:50:45;15.02;;;9.75;;
56893;SDS011;43392;50.078;13.704;2023-05-16T01:53:18;12.18;;;8.88;;
56893;SDS011;43392;50.078;13.704;2023-05-16T01:55:48;13.95;;;8.82;;
56893;SDS011;43392;50.078;13.704;2023-05-16T01:58:19;13.52;;;9.45;;
56893;SDS011;43392;50.078;13.704;2023-05-16T02:00:48;13.45;;;9.80;;
56893;SDS011;43392;50.078;13.704;2023-05-16T02:03:15;12.15;;;9.35;;
56893;SDS011;43392;50.078;13.704;2023-05-16T02:05:42;14.65;;;9.63;;
56893;SDS011;43392;50.078;13.704;2023-05-16T02:08:09;14.27;;;10.70;;
56893;SDS011;43392;50.078;13.704;2023-05-16T02:10:35;13.50;;;9.60;;
56893;SDS011;43392;50.078;13.704;2023-05-16T02:13:04;14.10;;;9.40;;
56893;SDS011;43392;50.078;13.704;2023-05-16T02:15:32;15.95;;;9.82;;
56893;SDS011;43392;50.078;13.704;2023-05-16T02:17:58;12.52;;;9.30;;
56893;SDS011;43392;50.078;13.704;2023-05-16T02:20:25;13.15;;;9.40;;
56893;SDS011;43392;50.078;13.704;2023-05-16T02:22:51;13.57;;;10.10;;
56893;SDS011;43392;50.078;13.704;2023-05-16T02:25:18;14.05;;;9.32;;
56893;SDS011;43392;50.078;13.704;2023-05-16T02:27:45;13.43;;;9.70;;
56893;SDS011;43392;50.078;13.704;2023-05-16T02:30:11;12.63;;;9.07;;
56893;SDS011;43392;50.078;13.704;2023-05-16T02:32:40;13.95;;;9.40;;
56893;SDS011;43392;50.078;13.704;2023-05-16T02:35:09;12.82;;;9.90;;
56893;SDS011;43392;50.078;13.704;2023-05-16T02:37:36;13.25;;;9.30;;
56893;SDS011;43392;50.078;13.704;2023-05-16T02:40:03;14.77;;;9.98;;
56893;SDS011;43392;50.078;13.704;2023-05-16T02:42:30;13.93;;;10.48;;
56893;SDS011;43392;50.078;13.704;2023-05-16T02:44:57;14.02;;;9.65;;
56893;SDS011;43392;50.078;13.704;2023-05-16T02:47:23;14.68;;;10.68;;
56893;SDS011;43392;50.078;13.704;2023-05-16T02:49:51;12.73;;;9.85;;
56893;SDS011;43392;50.078;13.704;2023-05-16T02:52:18;13.60;;;9.57;;
56893;SDS011;43392;50.078;13.704;2023-05-16T02:54:45;15.38;;;9.98;;
56893;SDS011;43392;50.078;13.704;2023-05-16T02:57:11;13.52;;;10.13;;
56893;SDS011;43392;50.078;13.704;2023-05-16T02:59:38;18.02;;;10.82;;
56893;SDS011;43392;50.078;13.704;2023-05-16T03:02:05;13.38;;;9.98;;
56893;SDS011;43392;50.078;13.704;2023-05-16T03:04:31;15.40;;;10.98;;
56893;SDS011;43392;50.078;13.704;2023-05-16T03:06:59;16.88;;;12.00;;
56893;SDS011;43392;50.078;13.704;2023-05-16T03:09:26;20.27;;;12.27;;
56893;SDS011;43392;50.078;13.704;2023-05-16T03:11:52;18.33;;;12.95;;
56893;SDS011;43392;50.078;13.704;2023-05-16T03:14:19;18.88;;;13.32;;
56893;SDS011;43392;50.078;13.704;2023-05-16T03:16:45;19.65;;;13.95;;
56893;SDS011;43392;50.078;13.704;2023-05-16T03:19:12;20.20;;;13.82;;
56893;SDS011;43392;50.078;13.704;2023-05-16T03:21:39;20.02;;;13.82;;
56893;SDS011;43392;50.078;13.704;2023-05-16T03:24:07;22.13;;;13.48;;
56893;SDS011;43392;50.078;13.704;2023-05-16T03:26:34;19.38;;;12.85;;
56893;SDS011;43392;50.078;13.704;2023-05-16T03:29:00;17.73;;;12.07;;
56893;SDS011;43392;50.078;13.704;2023-05-16T03:31:27;22.50;;;12.65;;
56893;SDS011;43392;50.078;13.704;2023-05-16T03:33:53;20.15;;;12.90;;
56893;SDS011;43392;50.078;13.704;2023-05-16T03:36:20;22.25;;;12.18;;
56893;SDS011;43392;50.078;13.704;2023-05-16T03:38:48;16.55;;;11.80;;
56893;SDS011;43392;50.078;13.704;2023-05-16T03:41:16;16.80;;;11.95;;
56893;SDS011;43392;50.078;13.704;2023-05-16T03:43:42;15.98;;;12.00;;
56893;SDS011;43392;50.078;13.704;2023-05-16T03:46:09;18.35;;;12.23;;
56893;SDS011;43392;50.078;13.704;2023-05-16T03:48:36;15.25;;;12.02;;
56893;SDS011;43392;50.078;13.704;2023-05-16T03:51:02;15.57;;;11.55;;
56893;SDS011;43392;50.078;13.704;2023-05-16T03:53:29;14.82;;;11.15;;
56893;SDS011;43392;50.078;13.704;2023-05-16T03:55:56;18.52;;;11.55;;
56893;SDS011;43392;50.078;13.704;2023-05-16T03:58:24;16.65;;;11.85;;
56893;SDS011;43392;50.078;13.704;2023-05-16T04:00:51;18.25;;;11.95;;
56893;SDS011;43392;50.078;13.704;2023-05-16T04:03:17;16.88;;;11.48;;
56893;SDS011;43392;50.078;13.704;2023-05-16T04:05:44;13.93;;;11.02;;
56893;SDS011;43392;50.078;13.704;2023-05-16T04:08:11;18.02;;;11.82;;
56893;SDS011;43392;50.078;13.704;2023-05-16T04:10:37;19.08;;;11.98;;
56893;SDS011;43392;50.078;13.704;2023-05-16T04:13:04;17.60;;;12.15;;
56893;SDS011;43392;50.078;13.704;2023-05-16T04:15:32;19.20;;;12.68;;
56893;SDS011;43392;50.078;13.704;2023-05-16T04:17:59;17.77;;;12.55;;
56893;SDS011;43392;50.078;13.704;2023-05-16T04:20:25;17.25;;;12.85;;
56893;SDS011;43392;50.078;13.704;2023-05-16T04:22:52;20.30;;;13.07;;
56893;SDS011;43392;50.078;13.704;2023-05-16T04:25:18;17.33;;;12.45;;
56893;SDS011;43392;50.078;13.704;2023-05-16T04:27:45;18.10;;;12.25;;
56893;SDS011;43392;50.078;13.704;2023-05-16T04:30:12;22.40;;;12.27;;
56893;SDS011;43392;50.078;13.704;2023-05-16T04:32:40;21.95;;;13.48;;
56893;SDS011;43392;50.078;13.704;2023-05-16T04:35:07;20.23;;;13.68;;
56893;SDS011;43392;50.078;13.704;2023-05-16T04:37:34;20.10;;;13.82;;
56893;SDS011;43392;50.078;13.704;2023-05-16T04:40:02;17.75;;;13.30;;
56893;SDS011;43392;50.078;13.704;2023-05-16T04:42:30;18.67;;;13.13;;
56893;SDS011;43392;50.078;13.704;2023-05-16T04:44:57;19.08;;;11.60;;
56893;SDS011;43392;50.078;13.704;2023-05-16T04:47:23;18.23;;;11.52;;
56893;SDS011;43392;50.078;13.704;2023-05-16T04:49:51;18.02;;;10.95;;
56893;SDS011;43392;50.078;13.704;2023-05-16T04:52:18;15.10;;;10.88;;
56893;SDS011;43392;50.078;13.704;2023-05-16T04:54:45;14.65;;;10.75;;
56893;SDS011;43392;50.078;13.704;2023-05-16T04:57:11;15.07;;;10.48;;
56893;SDS011;43392;50.078;13.704;2023-05-16T04:59:38;15.27;;;10.73;;
56893;SDS011;43392;50.078;13.704;2023-05-16T05:02:04;16.85;;;9.75;;
56893;SDS011;43392;50.078;13.704;2023-05-16T05:04:31;15.93;;;10.38;;
56893;SDS011;43392;50.078;13.704;2023-05-16T05:06:59;14.07;;;9.98;;
56893;SDS011;43392;50.078;13.704;2023-05-16T05:09:26;12.57;;;9.48;;
56893;SDS011;43392;50.078;13.704;2023-05-16T05:11:53;15.85;;;10.60;;
56893;SDS011;43392;50.078;13.704;2023-05-16T05:14:19;15.25;;;11.23;;
56893;SDS011;43392;50.078;13.704;2023-05-16T05:16:46;15.55;;;10.35;;
56893;SDS011;43392;50.078;13.704;2023-05-16T05:19:13;15.23;;;11.38;;
56893;SDS011;43392;50.078;13.704;2023-05-16T05:21:39;20.63;;;11.50;;
56893;SDS011;43392;50.078;13.704;2023-05-16T05:24:07;16.10;;;11.95;;
56893;SDS011;43392;50.078;13.704;2023-05-16T05:26:34;18.33;;;11.50;;
56893;SDS011;43392;50.078;13.704;2023-05-16T05:29:01;15.20;;;10.90;;
56893;SDS011;43392;50.078;13.704;2023-05-16T05:31:27;18.50;;;12.55;;
56893;SDS011;43392;50.078;13.704;2023-05-16T05:33:54;23.00;;;16.33;;
56893;SDS011;43392;50.078;13.704;2023-05-16T05:36:20;20.08;;;14.05;;
56893;SDS011;43392;50.078;13.704;2023-05-16T05:38:47;20.90;;;14.25;;
56893;SDS011;43392;50.078;13.704;2023-05-16T05:41:15;20.30;;;14.10;;
56893;SDS011;43392;50.078;13.704;2023-05-16T05:43:42;21.60;;;13.52;;
56893;SDS011;43392;50.078;13.704;2023-05-16T05:46:08;25.08;;;16.50;;
56893;SDS011;43392;50.078;13.704;2023-05-16T05:48:35;25.50;;;16.73;;
56893;SDS011;43392;50.078;13.704;2023-05-16T05:51:01;24.70;;;15.85;;
56893;SDS011;43392;50.078;13.704;2023-05-16T05:53:28;24.55;;;16.17;;
56893;SDS011;43392;50.078;13.704;2023-05-16T05:55:55;23.40;;;16.50;;
56893;SDS011;43392;50.078;13.704;2023-05-16T05:58:23;16.65;;;9.20;;
56893;SDS011;43392;50.078;13.704;2023-05-16T06:00:49;14.75;;;9.65;;
56893;SDS011;43392;50.078;13.704;2023-05-16T06:03:16;10.98;;;7.40;;
56893;SDS011;43392;50.078;13.704;2023-05-16T06:05:45;12.52;;;7.97;;
56893;SDS011;43392;50.078;13.704;2023-05-16T06:08:11;20.15;;;9.50;;
56893;SDS011;43392;50.078;13.704;2023-05-16T06:10:38;21.77;;;8.23;;
56893;SDS011;43392;50.078;13.704;2023-05-16T06:13:05;22.40;;;10.50;;
56893;SDS011;43392;50.078;13.704;2023-05-16T06:15:33;16.92;;;9.30;;
56893;SDS011;43392;50.078;13.704;2023-05-16T06:17:59;15.20;;;10.63;;
56893;SDS011;43392;50.078;13.704;2023-05-16T06:20:26;11.75;;;7.97;;
56893;SDS011;43392;50.078;13.704;2023-05-16T06:22:52;16.58;;;12.07;;
56893;SDS011;43392;50.078;13.704;2023-05-16T06:25:19;13.82;;;9.00;;
56893;SDS011;43392;50.078;13.704;2023-05-16T06:27:45;20.02;;;12.57;;
56893;SDS011;43392;50.078;13.704;2023-05-16T06:30:12;17.08;;;11.90;;
56893;SDS011;43392;50.078;13.704;2023-05-16T06:32:41;19.23;;;12.88;;
56893;SDS011;43392;50.078;13.704;2023-05-16T06:35:08;15.50;;;10.90;;
56893;SDS011;43392;50.078;13.704;2023-05-16T06:37:34;17.00;;;11.63;;
56893;SDS011;43392;50.078;13.704;2023-05-16T06:40:01;18.10;;;12.57;;
56893;SDS011;43392;50.078;13.704;2023-05-16T06:42:28;15.43;;;11.35;;
56893;SDS011;43392;50.078;13.704;2023-05-16T06:44:55;17.23;;;11.52;;
56893;SDS011;43392;50.078;13.704;2023-05-16T06:47:21;18.00;;;11.85;;
56893;SDS011;43392;50.078;13.704;2023-05-16T06:49:49;15.75;;;10.77;;
56893;SDS011;43392;50.078;13.704;2023-05-16T06:52:16;15.20;;;12.45;;
56893;SDS011;43392;50.078;13.704;2023-05-16T06:54:43;19.05;;;12.88;;
56893;SDS011;43392;50.078;13.704;2023-05-16T06:57:09;18.00;;;12.80;;
56893;SDS011;43392;50.078;13.704;2023-05-16T06:59:36;17.42;;;13.48;;
56893;SDS011;43392;50.078;13.704;2023-05-16T07:02:02;19.25;;;13.52;;
56893;SDS011;43392;50.078;13.704;2023-05-16T07:04:29;18.70;;;13.90;;
56893;SDS011;43392;50.078;13.704;2023-05-16T07:06:58;22.58;;;15.55;;
56893;SDS011;43392;50.078;13.704;2023-05-16T07:09:24;21.50;;;15.07;;
56893;SDS011;43392;50.078;13.704;2023-05-16T07:11:51;22.30;;;15.60;;
56893;SDS011;43392;50.078;13.704;2023-05-16T07:14:17;23.15;;;16.70;;
56893;SDS011;43392;50.078;13.704;2023-05-16T07:16:44;20.02;;;14.57;;
56893;SDS011;43392;50.078;13.704;2023-05-16T07:19:10;20.05;;;15.52;;
56893;SDS011;43392;50.078;13.704;2023-05-16T07:21:37;24.27;;;19.52;;
56893;SDS011;43392;50.078;13.704;2023-05-16T07:24:05;21.45;;;15.27;;
56893;SDS011;43392;50.078;13.704;2023-05-16T07:26:32;18.20;;;13.32;;
56893;SDS011;43392;50.078;13.704;2023-05-16T07:28:59;18.77;;;13.85;;
56893;SDS011;43392;50.078;13.704;2023-05-16T07:31:26;18.27;;;14.30;;
56893;SDS011;43392;50.078;13.704;2023-05-16T07:33:53;18.80;;;14.10;;
56893;SDS011;43392;50.078;13.704;2023-05-16T07:36:19;18.60;;;13.60;;
56893;SDS011;43392;50.078;13.704;2023-05-16T07:38:46;17.67;;;13.20;;
56893;SDS011;43392;50.078;13.704;2023-05-16T07:41:14;17.27;;;13.65;;
56893;SDS011;43392;50.078;13.704;2023-05-16T07:43:40;19.60;;;12.98;;
56893;SDS011;43392;50.078;13.704;2023-05-16T07:46:07;21.55;;;13.55;;
56893;SDS011;43392;50.078;13.704;2023-05-16T07:48:34;18.85;;;12.65;;
56893;SDS011;43392;50.078;13.704;2023-05-16T07:51:00;20.55;;;12.52;;
56893;SDS011;43392;50.078;13.704;2023-05-16T07:53:27;17.63;;;12.45;;
56893;SDS011;43392;50.078;13.704;2023-05-16T07:55:54;16.70;;;12.35;;
56893;SDS011;43392;50.078;13.704;2023-05-16T07:58:22;25.15;;;15.93;;
56893;SDS011;43392;50.078;13.704;2023-05-16T08:00:48;17.13;;;12.20;;
56893;SDS011;43392;50.078;13.704;2023-05-16T08:03:15;16.73;;;11.88;;
56893;SDS011;43392;50.078;13.704;2023-05-16T08:05:41;20.17;;;12.02;;
56893;SDS011;43392;50.078;13.704;2023-05-16T08:08:09;33.08;;;17.98;;
56893;SDS011;43392;50.078;13.704;2023-05-16T08:10:35;54.00;;;28.25;;
56893;SDS011;43392;50.078;13.704;2023-05-16T08:13:02;35.67;;;22.25;;
56893;SDS011;43392;50.078;13.704;2023-05-16T08:15:30;18.60;;;12.68;;
56893;SDS011;43392;50.078;13.704;2023-05-16T08:17:57;20.92;;;13.82;;
56893;SDS011;43392;50.078;13.704;2023-05-16T08:20:24;20.00;;;13.95;;
56893;SDS011;43392;50.078;13.704;2023-05-16T08:22:51;18.10;;;13.63;;
56893;SDS011;43392;50.078;13.704;2023-05-16T08:25:17;18.45;;;12.55;;
56893;SDS011;43392;50.078;13.704;2023-05-16T08:27:44;17.48;;;12.73;;
56893;SDS011;43392;50.078;13.704;2023-05-16T08:30:11;16.33;;;11.63;;
56893;SDS011;43392;50.078;13.704;2023-05-16T08:32:40;16.63;;;12.40;;
56893;SDS011;43392;50.078;13.704;2023-05-16T08:35:07;19.02;;;12.43;;
56893;SDS011;43392;50.078;13.704;2023-05-16T08:37:35;17.35;;;12.02;;
56893;SDS011;43392;50.078;13.704;2023-05-16T08:40:02;16.10;;;12.68;;
56893;SDS011;43392;50.078;13.704;2023-05-16T08:42:32;16.00;;;11.68;;
56893;SDS011;43392;50.078;13.704;2023-05-16T08:44:59;17.50;;;12.48;;
56893;SDS011;43392;50.078;13.704;2023-05-16T08:47:26;17.25;;;11.77;;
56893;SDS011;43392;50.078;13.704;2023-05-16T08:49:57;17.60;;;11.98;;
56893;SDS011;43392;50.078;13.704;2023-05-16T08:52:26;17.90;;;12.30;;
56893;SDS011;43392;50.078;13.704;2023-05-16T08:54:54;18.10;;;11.65;;
56893;SDS011;43392;50.078;13.704;2023-05-16T08:57:22;15.55;;;12.23;;
56893;SDS011;43392;50.078;13.704;2023-05-16T08:59:49;16.08;;;11.80;;
56893;SDS011;43392;50.078;13.704;2023-05-16T09:02:18;18.60;;;12.35;;
56893;SDS011;43392;50.078;13.704;2023-05-16T09:04:46;16.15;;;12.70;;
56893;SDS011;43392;50.078;13.704;2023-05-16T09:07:15;16.63;;;12.32;;
56893;SDS011;43392;50.078;13.704;2023-05-16T09:09:42;17.95;;;11.45;;
56893;SDS011;43392;50.078;13.704;2023-05-16T09:12:08;16.10;;;13.00;;
56893;SDS011;43392;50.078;13.704;2023-05-16T09:14:35;14.85;;;11.75;;
56893;SDS011;43392;50.078;13.704;2023-05-16T09:17:02;15.07;;;11.25;;
56893;SDS011;43392;50.078;13.704;2023-05-16T09:19:36;14.93;;;11.57;;
56893;SDS011;43392;50.078;13.704;2023-05-16T09:22:04;15.63;;;11.50;;
56893;SDS011;43392;50.078;13.704;2023-05-16T09:24:35;18.25;;;13.55;;
56893;SDS011;43392;50.078;13.704;2023-05-16T09:27:06;18.95;;;13.02;;
56893;SDS011;43392;50.078;13.704;2023-05-16T09:29:33;17.13;;;13.75;;
56893;SDS011;43392;50.078;13.704;2023-05-16T09:32:03;17.23;;;13.32;;
56893;SDS011;43392;50.078;13.704;2023-05-16T09:34:30;15.98;;;11.15;;
56893;SDS011;43392;50.078;13.704;2023-05-16T09:36:58;13.48;;;10.02;;
56893;SDS011;43392;50.078;13.704;2023-05-16T09:39:25;17.23;;;12.45;;
56893;SDS011;43392;50.078;13.704;2023-05-16T09:41:54;15.55;;;11.80;;
56893;SDS011;43392;50.078;13.704;2023-05-16T09:44:20;25.30;;;16.38;;
56893;SDS011;43392;50.078;13.704;2023-05-16T09:46:47;18.17;;;12.63;;
56893;SDS011;43392;50.078;13.704;2023-05-16T09:49:13;18.90;;;14.38;;
56893;SDS011;43392;50.078;13.704;2023-05-16T09:51:40;17.88;;;12.40;;
56893;SDS011;43392;50.078;13.704;2023-05-16T09:54:06;20.55;;;12.57;;
56893;SDS011;43392;50.078;13.704;2023-05-16T09:56:33;14.77;;;11.63;;
56893;SDS011;43392;50.078;13.704;2023-05-16T10:01:42;24.88;;;14.45;;
56893;SDS011;43392;50.078;13.704;2023-05-16T10:04:09;18.08;;;13.73;;
56893;SDS011;43392;50.078;13.704;2023-05-16T10:06:38;18.27;;;14.57;;
56893;SDS011;43392;50.078;13.704;2023-05-16T10:09:09;23.05;;;17.05;;
56893;SDS011;43392;50.078;13.704;2023-05-16T10:11:37;19.83;;;14.30;;
56893;SDS011;43392;50.078;13.704;2023-05-16T10:14:05;20.23;;;14.73;;
56893;SDS011;43392;50.078;13.704;2023-05-16T10:16:34;21.55;;;15.32;;
56893;SDS011;43392;50.078;13.704;2023-05-16T10:19:01;20.95;;;16.05;;
56893;SDS011;43392;50.078;13.704;2023-05-16T10:21:29;24.88;;;17.23;;
56893;SDS011;43392;50.078;13.704;2023-05-16T10:23:58;23.83;;;18.08;;
56893;SDS011;43392;50.078;13.704;2023-05-16T10:26:28;23.90;;;18.35;;
56893;SDS011;43392;50.078;13.704;2023-05-16T10:28:57;20.35;;;15.82;;
56893;SDS011;43392;50.078;13.704;2023-05-16T10:31:25;23.30;;;16.50;;
56893;SDS011;43392;50.078;13.704;2023-05-16T10:33:55;23.67;;;18.05;;
56893;SDS011;43392;50.078;13.704;2023-05-16T10:36:22;25.15;;;17.00;;
56893;SDS011;43392;50.078;13.704;2023-05-16T10:38:49;21.83;;;16.67;;
56893;SDS011;43392;50.078;13.704;2023-05-16T10:41:16;27.58;;;17.42;;
56893;SDS011;43392;50.078;13.704;2023-05-16T10:43:54;22.35;;;16.60;;
56893;SDS011;43392;50.078;13.704;2023-05-16T10:46:22;21.48;;;16.05;;
56893;SDS011;43392;50.078;13.704;2023-05-16T10:48:49;22.38;;;18.70;;
56893;SDS011;43392;50.078;13.704;2023-05-16T10:54:06;27.48;;;18.05;;
56893;SDS011;43392;50.078;13.704;2023-05-16T10:56:34;28.45;;;19.08;;
56893;SDS011;43392;50.078;13.704;2023-05-16T10:59:01;26.73;;;19.48;;
56893;SDS011;43392;50.078;13.704;2023-05-16T11:01:29;24.95;;;18.63;;
56893;SDS011;43392;50.078;13.704;2023-05-16T11:04:08;24.55;;;18.50;;
56893;SDS011;43392;50.078;13.704;2023-05-16T11:06:44;31.23;;;20.67;;
56893;SDS011;43392;50.078;13.704;2023-05-16T11:09:19;29.65;;;19.75;;
56893;SDS011;43392;50.078;13.704;2023-05-16T11:11:52;31.85;;;19.20;;
56893;SDS011;43392;50.078;13.704;2023-05-16T11:14:21;29.13;;;19.38;;
56893;SDS011;43392;50.078;13.704;2023-05-16T11:16:49;27.70;;;19.25;;
56893;SDS011;43392;50.078;13.704;2023-05-16T11:19:29;28.50;;;19.75;;
56893;SDS011;43392;50.078;13.704;2023-05-16T11:24:55;29.95;;;19.17;;
56893;SDS011;43392;50.078;13.704;2023-05-16T11:27:25;30.42;;;19.92;;
56893;SDS011;43392;50.078;13.704;2023-05-16T11:29:54;29.13;;;21.45;;
56893;SDS011;43392;50.078;13.704;2023-05-16T11:32:24;33.28;;;21.60;;
56893;SDS011;43392;50.078;13.704;2023-05-16T11:34:51;24.95;;;17.80;;
56893;SDS011;43392;50.078;13.704;2023-05-16T11:37:18;29.20;;;19.33;;
56893;SDS011;43392;50.078;13.704;2023-05-16T11:39:47;30.23;;;19.85;;
56893;SDS011;43392;50.078;13.704;2023-05-16T11:42:13;28.35;;;19.08;;
56893;SDS011;43392;50.078;13.704;2023-05-16T11:44:40;28.10;;;19.90;;
56893;SDS011;43392;50.078;13.704;2023-05-16T11:47:07;28.17;;;19.85;;
56893;SDS011;43392;50.078;13.704;2023-05-16T11:49:33;28.38;;;19.65;;
56893;SDS011;43392;50.078;13.704;2023-05-16T11:52:00;29.63;;;21.00;;
56893;SDS011;43392;50.078;13.704;2023-05-16T11:54:27;26.83;;;20.20;;
56893;SDS011;43392;50.078;13.704;2023-05-16T11:56:55;27.00;;;19.73;;
56893;SDS011;43392;50.078;13.704;2023-05-16T11:59:22;27.58;;;20.25;;
56893;SDS011;43392;50.078;13.704;2023-05-16T12:01:49;25.52;;;19.60;;
56893;SDS011;43392;50.078;13.704;2023-05-16T12:04:16;27.60;;;21.27;;
56893;SDS011;43392;50.078;13.704;2023-05-16T12:06:44;26.65;;;19.02;;
56893;SDS011;43392;50.078;13.704;2023-05-16T12:09:24;27.48;;;19.40;;
56893;SDS011;43392;50.078;13.704;2023-05-16T12:11:50;27.27;;;20.58;;
56893;SDS011;43392;50.078;13.704;2023-05-16T12:14:18;31.77;;;21.15;;
56893;SDS011;43392;50.078;13.704;2023-05-16T12:16:46;27.35;;;20.55;;
56893;SDS011;43392;50.078;13.704;2023-05-16T12:19:13;28.00;;;20.42;;
56893;SDS011;43392;50.078;13.704;2023-05-16T12:21:40;27.77;;;19.55;;
56893;SDS011;43392;50.078;13.704;2023-05-16T12:24:08;28.17;;;20.95;;
56893;SDS011;43392;50.078;13.704;2023-05-16T12:26:37;29.17;;;21.30;;
56893;SDS011;43392;50.078;13.704;2023-05-16T12:29:05;27.98;;;21.33;;
56893;SDS011;43392;50.078;13.704;2023-05-16T12:31:35;27.65;;;20.00;;
56893;SDS011;43392;50.078;13.704;2023-05-16T12:34:03;33.60;;;20.90;;
56893;SDS011;43392;50.078;13.704;2023-05-16T12:36:31;30.98;;;20.75;;
56893;SDS011;43392;50.078;13.704;2023-05-16T12:38:59;26.80;;;20.77;;
56893;SDS011;43392;50.078;13.704;2023-05-16T12:41:27;29.65;;;20.23;;
56893;SDS011;43392;50.078;13.704;2023-05-16T12:44:05;25.90;;;19.27;;
56893;SDS011;43392;50.078;13.704;2023-05-16T12:46:31;25.55;;;18.85;;
56893;SDS011;43392;50.078;13.704;2023-05-16T12:49:01;29.92;;;21.08;;
56893;SDS011;43392;50.078;13.704;2023-05-16T12:51:29;28.27;;;19.38;;
56893;SDS011;43392;50.078;13.704;2023-05-16T12:53:57;25.88;;;18.95;;
56893;SDS011;43392;50.078;13.704;2023-05-16T12:56:33;24.40;;;18.42;;
56893;SDS011;43392;50.078;13.704;2023-05-16T12:59:00;24.85;;;18.63;;
56893;SDS011;43392;50.078;13.704;2023-05-16T13:01:27;24.63;;;17.02;;
56893;SDS011;43392;50.078;13.704;2023-05-16T13:03:53;23.65;;;17.67;;
56893;SDS011;43392;50.078;13.704;2023-05-16T13:06:21;25.63;;;15.82;;
56893;SDS011;43392;50.078;13.704;2023-05-16T13:08:48;29.45;;;16.88;;
56893;SDS011;43392;50.078;13.704;2023-05-16T13:11:14;22.88;;;16.13;;
56893;SDS011;43392;50.078;13.704;2023-05-16T13:13:41;24.10;;;16.80;;
56893;SDS011;43392;50.078;13.704;2023-05-16T13:16:08;21.63;;;16.02;;
56893;SDS011;43392;50.078;13.704;2023-05-16T13:18:35;19.50;;;14.63;;
56893;SDS011;43392;50.078;13.704;2023-05-16T13:21:01;21.48;;;14.70;;
56893;SDS011;43392;50.078;13.704;2023-05-16T13:23:30;19.90;;;15.13;;
56893;SDS011;43392;50.078;13.704;2023-05-16T13:25:57;24.75;;;15.90;;
56893;SDS011;43392;50.078;13.704;2023-05-16T13:28:24;22.27;;;15.05;;
56893;SDS011;43392;50.078;13.704;2023-05-16T13:30:50;18.33;;;13.68;;
56893;SDS011;43392;50.078;13.704;2023-05-16T13:33:17;20.88;;;13.60;;
56893;SDS011;43392;50.078;13.704;2023-05-16T13:35:44;20.42;;;13.77;;
56893;SDS011;43392;50.078;13.704;2023-05-16T13:38:10;27.13;;;13.40;;
56893;SDS011;43392;50.078;13.704;2023-05-16T13:40:38;21.30;;;13.77;;
56893;SDS011;43392;50.078;13.704;2023-05-16T13:43:05;19.60;;;13.10;;
56893;SDS011;43392;50.078;13.704;2023-05-16T13:45:32;20.15;;;13.38;;
56893;SDS011;43392;50.078;13.704;2023-05-16T13:47:59;19.52;;;12.90;;
56893;SDS011;43392;50.078;13.704;2023-05-16T13:50:25;20.73;;;12.48;;
56893;SDS011;43392;50.078;13.704;2023-05-16T13:52:52;18.50;;;12.30;;
56893;SDS011;43392;50.078;13.704;2023-05-16T13:55:19;17.45;;;12.25;;
56893;SDS011;43392;50.078;13.704;2023-05-16T13:57:47;19.02;;;12.40;;
56893;SDS011;43392;50.078;13.704;2023-05-16T14:00:14;19.63;;;12.55;;
56893;SDS011;43392;50.078;13.704;2023-05-16T14:02:41;18.80;;;12.13;;
56893;SDS011;43392;50.078;13.704;2023-05-16T14:05:08;24.05;;;16.92;;
56893;SDS011;43392;50.078;13.704;2023-05-16T14:07:35;19.60;;;12.13;;
56893;SDS011;43392;50.078;13.704;2023-05-16T14:10:01;24.38;;;14.98;;
56893;SDS011;43392;50.078;13.704;2023-05-16T14:12:30;20.08;;;10.73;;
56893;SDS011;43392;50.078;13.704;2023-05-16T14:14:58;16.92;;;11.05;;
56893;SDS011;43392;50.078;13.704;2023-05-16T14:17:25;15.35;;;11.05;;
56893;SDS011;43392;50.078;13.704;2023-05-16T14:19:51;20.10;;;14.68;;
56893;SDS011;43392;50.078;13.704;2023-05-16T14:22:18;15.65;;;10.23;;